Time;durP1;ratioP1;P1;durP2;ratioP2;P2;SDS_P1;SDS_P2;PMS_P1;PMS_P2;Temp;Humidity;BMP_temperature;BMP_pressure;BME280_temperature;BME280_humidity;BME280_pressure;Samples;Min_cycle;Max_cycle;Signal;HPM_P1;HPM_P2
2022/03/20 00:00:07;;;;;;;15.20;12.37;;;;;;;3.79;85.20;104244.09;5010829;28;20274;-74
2022/03/20 00:02:37;;;;;;;20.70;13.60;;;;;;;3.78;85.21;104242.31;5029942;28;20228;-74
2022/03/20 00:05:04;;;;;;;18.93;13.40;;;;;;;3.71;85.02;104234.81;5059774;28;20217;-74
2022/03/20 00:07:31;;;;;;;19.97;14.30;;;;;;;3.69;85.57;104237.19;5070193;28;20181;-74
2022/03/20 00:09:58;;;;;;;19.43;13.70;;;;;;;3.64;85.32;104232.41;5030175;28;20206;-74
2022/03/20 00:12:23;;;;;;;20.70;13.90;;;;;;;3.67;85.55;104225.09;5045775;28;20244;-74
2022/03/20 00:14:48;;;;;;;19.27;13.63;;;;;;;3.66;85.71;104224.22;5048797;28;20201;-73
2022/03/20 00:17:14;;;;;;;25.63;15.20;;;;;;;3.65;85.64;104219.91;5032057;28;20684;-73
2022/03/20 00:19:40;;;;;;;19.70;14.30;;;;;;;3.66;86.40;104215.72;5048497;28;20730;-74
2022/03/20 00:22:06;;;;;;;21.80;15.77;;;;;;;3.62;85.75;104212.00;5050101;28;20199;-74
2022/03/20 00:24:32;;;;;;;23.37;15.77;;;;;;;3.62;86.29;104206.03;5048385;28;20231;-74
2022/03/20 00:26:57;;;;;;;23.37;14.90;;;;;;;3.59;85.72;104209.13;5047093;28;20186;-74
2022/03/20 00:29:24;;;;;;;20.10;14.33;;;;;;;3.61;86.54;104195.00;5028663;28;20182;-74
2022/03/20 00:31:50;;;;;;;22.37;15.43;;;;;;;3.71;85.62;104194.28;5030265;28;20852;-74
2022/03/20 00:34:15;;;;;;;21.13;15.07;;;;;;;3.60;86.28;104194.84;5042222;28;20205;-73
2022/03/20 00:36:40;;;;;;;24.67;14.70;;;;;;;3.59;86.52;104183.81;5048505;28;20194;-74
2022/03/20 00:39:06;;;;;;;21.37;15.83;;;;;;;3.52;86.72;104173.81;5049546;28;20230;-74
2022/03/20 00:41:31;;;;;;;22.50;15.77;;;;;;;3.56;86.04;104168.31;5049708;28;20219;-74
2022/03/20 00:43:58;;;;;;;20.93;13.90;;;;;;;3.54;86.65;104177.38;5047906;28;20244;-74
2022/03/20 00:46:25;;;;;;;24.80;15.23;;;;;;;3.58;86.67;104171.03;5049652;28;20185;-74
2022/03/20 00:48:50;;;;;;;26.67;17.07;;;;;;;3.60;87.21;104172.06;5049357;28;20302;-74
2022/03/20 00:51:16;;;;;;;23.67;15.87;;;;;;;3.59;87.12;104171.16;5049164;28;20190;-74
2022/03/20 00:53:41;;;;;;;27.30;16.87;;;;;;;3.64;86.28;104175.03;5036319;28;20602;-75
2022/03/20 00:56:07;;;;;;;23.93;16.03;;;;;;;3.59;86.88;104166.06;5029636;28;20850;-74
2022/03/20 00:58:33;;;;;;;24.47;17.17;;;;;;;3.56;86.22;104165.78;5029589;28;20240;-74
2022/03/20 01:00:58;;;;;;;24.93;16.50;;;;;;;3.50;85.77;104172.75;5028570;28;20175;-74
2022/03/20 01:03:23;;;;;;;27.93;17.03;;;;;;;3.56;85.97;104170.84;5029732;28;20190;-74
2022/03/20 01:05:49;;;;;;;22.87;16.33;;;;;;;3.51;87.21;104168.59;5029726;28;20218;-74
2022/03/20 01:08:14;;;;;;;20.10;16.00;;;;;;;3.50;86.44;104162.63;5028008;28;20609;-74
2022/03/20 01:10:40;;;;;;;27.13;16.80;;;;;;;3.49;86.46;104158.31;5029520;28;20193;-74
2022/03/20 01:13:05;;;;;;;25.33;17.57;;;;;;;3.45;86.66;104157.84;5029611;28;20682;-74
2022/03/20 01:15:31;;;;;;;22.70;16.70;;;;;;;3.43;86.16;104154.25;5046618;28;20206;-74
2022/03/20 01:17:57;;;;;;;24.80;17.03;;;;;;;3.43;86.87;104149.19;5047924;28;20235;-74
2022/03/20 01:20:23;;;;;;;24.07;16.27;;;;;;;3.48;86.69;104151.44;5064645;28;20182;-74
2022/03/20 01:22:49;;;;;;;26.30;18.10;;;;;;;3.41;86.43;104150.69;5049419;28;20193;-74
2022/03/20 01:25:15;;;;;;;24.70;17.77;;;;;;;3.38;86.36;104142.78;5049292;28;20282;-74
2022/03/20 01:27:41;;;;;;;26.93;18.10;;;;;;;3.39;86.58;104147.09;5031663;28;20189;-74
2022/03/20 01:30:07;;;;;;;27.43;17.90;;;;;;;3.44;85.89;104143.38;5048786;28;20568;-74
2022/03/20 01:32:33;;;;;;;27.43;18.20;;;;;;;3.46;85.82;104140.28;5049473;28;20216;-74
2022/03/20 01:34:58;;;;;;;25.40;17.33;;;;;;;3.45;86.17;104142.66;5048056;28;20205;-74
2022/03/20 01:37:23;;;;;;;25.90;18.67;;;;;;;3.43;85.80;104137.44;5031309;28;20201;-74
2022/03/20 01:39:49;;;;;;;22.67;16.40;;;;;;;3.36;85.38;104134.13;5047750;28;20666;-74
2022/03/20 01:42:14;;;;;;;25.43;18.20;;;;;;;3.33;86.15;104121.16;5049097;28;20194;-74
2022/03/20 01:44:39;;;;;;;24.07;17.67;;;;;;;3.36;85.66;104124.00;5049017;28;20296;-74
2022/03/20 01:47:06;;;;;;;25.33;16.70;;;;;;;3.30;85.69;104126.81;5049160;28;20186;-74
2022/03/20 01:49:31;;;;;;;24.37;16.57;;;;;;;3.29;86.05;104117.44;5048955;28;20194;-74
2022/03/20 01:54:52;;;;;;;22.70;17.00;;;;;;;3.21;86.42;104103.09;5039933;28;20221;-74
2022/03/20 01:57:23;;;;;;;25.43;18.07;;;;;;;3.23;85.36;104104.16;5047660;28;20719;-74
2022/03/20 01:59:49;;;;;;;25.50;17.17;;;;;;;3.21;86.68;104100.56;5048889;28;20265;-74
2022/03/20 02:02:15;;;;;;;26.07;18.17;;;;;;;3.20;86.02;104101.31;5048992;28;20188;-74
2022/03/20 02:04:41;;;;;;;27.90;18.60;;;;;;;3.15;86.13;104097.41;5051891;28;20504;-73
2022/03/20 02:07:07;;;;;;;28.50;19.30;;;;;;;3.22;85.70;104093.88;5052449;28;20662;-74
2022/03/20 02:09:37;;;;;;;27.07;18.03;;;;;;;3.20;85.91;104092.81;5052465;28;20256;-74
2022/03/20 02:12:03;;;;;;;27.60;18.60;;;;;;;3.21;85.49;104092.97;5051257;28;20182;-74
2022/03/20 02:14:30;;;;;;;27.67;17.70;;;;;;;3.21;86.18;104084.47;5052320;28;20205;-74
2022/03/20 02:16:56;;;;;;;26.27;18.03;;;;;;;3.17;85.93;104078.19;5052409;28;20177;-74
2022/03/20 02:19:22;;;;;;;28.63;17.43;;;;;;;3.20;85.09;104075.09;5052387;28;20581;-73
2022/03/20 02:21:49;;;;;;;25.80;18.23;;;;;;;3.17;85.04;104072.28;5052385;28;20196;-74
2022/03/20 02:24:41;;;;;;;23.70;17.00;;;;;;;3.16;85.05;104066.28;5052219;28;20202;-74
2022/03/20 02:27:27;;;;;;;25.57;17.97;;;;;;;3.14;84.89;104069.41;5052433;28;20181;-74
2022/03/20 02:30:01;;;;;;;27.60;18.60;;;;;;;3.13;85.06;104071.03;5052229;28;20231;-74
2022/03/20 02:32:29;;;;;;;27.80;18.20;;;;;;;3.18;84.42;104061.41;5052089;28;20174;-74
2022/03/20 02:35:01;;;;;;;27.33;18.27;;;;;;;3.14;84.05;104054.22;5052000;28;20213;-74
2022/03/20 02:37:28;;;;;;;27.43;18.33;;;;;;;3.04;83.91;104049.88;5050587;28;20178;-74
2022/03/20 02:39:55;;;;;;;29.90;19.17;;;;;;;3.07;84.71;104049.28;5033989;28;20247;-74
2022/03/20 02:42:23;;;;;;;25.53;18.73;;;;;;;3.13;84.56;104050.78;5050388;28;20549;-74
2022/03/20 02:45:04;;;;;;;29.30;19.13;;;;;;;3.10;84.17;104050.50;5051705;28;20241;-74
2022/03/20 02:47:38;;;;;;;26.83;18.17;;;;;;;3.07;83.25;104042.59;5051807;28;20242;-74
2022/03/20 02:50:17;;;;;;;25.57;19.37;;;;;;;3.10;83.97;104045.44;5051754;28;20188;-74
2022/03/20 02:52:46;;;;;;;27.20;18.93;;;;;;;3.05;83.26;104035.59;5050261;28;20553;-74
2022/03/20 02:55:15;;;;;;;29.60;18.70;;;;;;;3.12;82.47;104033.81;5051861;28;20251;-73
2022/03/20 02:57:41;;;;;;;28.67;18.73;;;;;;;3.05;82.80;104026.38;5051663;28;20221;-74
2022/03/20 03:00:07;;;;;;;26.40;17.87;;;;;;;3.08;81.73;104031.72;5050257;28;20228;-74
2022/03/20 03:02:39;;;;;;;26.43;18.90;;;;;;;3.11;81.80;104026.06;5051377;28;20201;-74
2022/03/20 03:05:04;;;;;;;29.53;18.53;;;;;;;3.06;81.08;104030.69;5031414;28;20287;-74
2022/03/20 03:07:31;;;;;;;26.40;17.50;;;;;;;3.09;81.54;104018.31;5029963;28;20186;-74
2022/03/20 03:12:41;;;;;;;25.20;17.60;;;;;;;3.02;80.56;104021.00;5051387;28;20252;-74
2022/03/20 03:15:19;;;;;;;27.37;19.23;;;;;;;3.00;80.64;104029.19;5032970;28;20320;-73
2022/03/20 03:17:46;;;;;;;29.23;18.20;;;;;;;3.01;81.24;104030.97;5033181;28;20288;-73
2022/03/20 03:20:12;;;;;;;26.77;17.97;;;;;;;2.97;80.63;104032.28;5051029;28;20212;-73
2022/03/20 03:22:37;;;;;;;24.03;17.87;;;;;;;3.00;80.35;104022.50;5049778;28;20714;-73
2022/03/20 03:25:04;;;;;;;23.90;17.83;;;;;;;2.96;80.72;104014.41;5032733;28;20265;-73
2022/03/20 03:27:29;;;;;;;27.93;18.10;;;;;;;2.96;80.41;104020.38;5031475;28;20218;-74
2022/03/20 03:29:54;;;;;;;26.27;18.20;;;;;;;3.01;79.76;104014.16;5046380;28;20233;-73
2022/03/20 03:32:20;;;;;;;26.10;18.30;;;;;;;2.91;80.01;104018.13;5051070;28;20193;-73
2022/03/20 03:37:32;;;;;;;27.87;19.03;;;;;;;2.95;79.83;104013.50;5050932;28;20187;-73
2022/03/20 03:39:59;;;;;;;27.87;18.83;;;;;;;2.93;79.42;104006.50;5050882;28;20189;-73
2022/03/20 03:42:24;;;;;;;25.93;18.63;;;;;;;2.90;78.88;104006.22;5050894;28;20191;-73
2022/03/20 03:44:50;;;;;;;27.13;19.63;;;;;;;2.88;79.72;104016.19;5050878;28;20271;-73
2022/03/20 03:47:15;;;;;;;26.77;18.90;;;;;;;2.99;77.76;104005.50;5050805;28;20216;-73
2022/03/20 03:49:41;;;;;;;26.93;19.47;;;;;;;2.97;77.40;104001.94;5049158;28;20217;-73
2022/03/20 03:52:06;;;;;;;34.80;20.50;;;;;;;2.93;78.05;104001.44;5050612;28;20174;-75
2022/03/20 03:54:32;;;;;;;27.50;18.73;;;;;;;2.93;77.89;103999.81;5048154;28;20280;-73
2022/03/20 03:56:58;;;;;;;24.93;18.33;;;;;;;2.98;77.80;104005.31;5030556;28;20240;-73
2022/03/20 03:59:24;;;;;;;31.40;20.23;;;;;;;2.92;77.33;103990.44;5048529;28;20184;-73
2022/03/20 04:01:49;;;;;;;28.40;19.73;;;;;;;2.87;77.53;103993.25;5048924;28;20189;-73
2022/03/20 04:04:15;;;;;;;30.47;19.63;;;;;;;2.86;77.23;103987.31;5048752;28;20244;-73
2022/03/20 04:06:41;;;;;;;24.43;18.63;;;;;;;2.94;76.11;103988.09;5048868;28;20185;-74
2022/03/20 04:09:06;;;;;;;27.10;18.70;;;;;;;2.92;75.98;103987.00;5048798;28;20201;-74
2022/03/20 04:11:32;;;;;;;26.37;19.20;;;;;;;2.93;76.17;103977.06;5050253;28;20196;-73
2022/03/20 04:13:58;;;;;;;25.17;18.00;;;;;;;2.98;74.83;103978.41;5048876;28;20192;-74
2022/03/20 04:16:23;;;;;;;26.60;19.33;;;;;;;2.99;74.53;103981.84;5050209;28;20186;-73
2022/03/20 04:18:48;;;;;;;27.83;18.63;;;;;;;2.97;74.40;103975.72;5048604;28;20193;-74
2022/03/20 04:21:14;;;;;;;27.53;18.60;;;;;;;2.98;74.61;103980.03;5050053;28;20186;-73
2022/03/20 04:23:45;;;;;;;28.90;19.27;;;;;;;2.91;75.50;103982.69;5048453;28;20272;-73
2022/03/20 04:26:18;;;;;;;27.13;19.17;;;;;;;2.88;74.31;103970.63;5049300;28;20713;-74
2022/03/20 04:28:44;;;;;;;25.70;18.50;;;;;;;2.97;73.78;103973.19;5049870;28;20189;-74
2022/03/20 04:31:15;;;;;;;24.43;18.47;;;;;;;2.96;73.60;103974.84;5049775;28;20197;-73
2022/03/20 04:33:41;;;;;;;26.40;19.27;;;;;;;2.94;73.79;103973.78;5048443;28;20690;-74
2022/03/20 04:36:08;;;;;;;26.37;18.10;;;;;;;2.98;73.40;103969.91;5048373;28;20213;-73
2022/03/20 04:38:37;;;;;;;27.17;19.23;;;;;;;2.97;73.85;103970.66;5049788;28;20268;-74
2022/03/20 04:41:03;;;;;;;27.93;19.67;;;;;;;2.96;73.97;103966.34;5049693;28;20204;-73
2022/03/20 04:43:29;;;;;;;30.83;20.37;;;;;;;2.96;72.94;103963.81;5049647;28;20648;-74
2022/03/20 04:45:56;;;;;;;28.80;19.20;;;;;;;2.94;73.44;103961.13;5050083;28;20230;-74
2022/03/20 04:59:17;;;;;;;25.10;18.23;;;;;;;2.95;71.81;103954.44;5048425;28;20519;-73
2022/03/20 05:01:42;;;;;;;30.00;20.10;;;;;;;2.95;72.28;103954.44;5049774;28;20208;-75
2022/03/20 05:04:08;;;;;;;27.43;19.13;;;;;;;2.94;71.96;103957.72;5049451;28;20217;-74
2022/03/20 05:06:33;;;;;;;25.80;18.10;;;;;;;3.02;70.14;103946.69;5048201;28;20190;-74
2022/03/20 05:13:19;;;;;;;26.50;19.00;;;;;;;3.01;69.78;103952.50;5049414;28;20633;-74
2022/03/20 05:14:28;;;;;;;29.40;20.47;;;;;;;2.87;72.25;103952.78;5049210;28;20213;-73
2022/03/20 05:16:53;;;;;;;27.87;19.63;;;;;;;2.85;71.91;103939.97;5049350;28;20200;-74
2022/03/20 05:19:19;;;;;;;29.07;19.60;;;;;;;2.89;70.21;103939.53;5049225;28;20206;-73
2022/03/20 05:21:46;;;;;;;28.30;18.77;;;;;;;2.93;69.53;103941.63;5044045;28;20191;-73
2022/03/20 05:24:13;;;;;;;30.13;18.57;;;;;;;3.00;70.17;103941.50;5047911;28;20284;-73
2022/03/20 05:26:41;;;;;;;30.03;19.93;;;;;;;2.99;70.05;103946.41;5049223;28;20641;-73
2022/03/20 05:29:06;;;;;;;27.80;18.83;;;;;;;2.98;71.03;103942.97;5048988;28;20247;-73
2022/03/20 05:31:32;;;;;;;28.90;18.60;;;;;;;3.03;69.52;103943.44;5049090;28;20710;-73
2022/03/20 05:33:59;;;;;;;26.97;19.60;;;;;;;2.99;69.39;103944.75;5049024;28;20670;-73
2022/03/20 05:36:28;;;;;;;26.57;18.57;;;;;;;2.98;69.83;103939.53;5047536;28;20194;-74
2022/03/20 05:38:55;;;;;;;27.27;18.90;;;;;;;2.93;70.36;103941.63;5051751;28;20182;-74
2022/03/20 05:44:05;;;;;;;28.10;19.23;;;;;;;2.97;69.66;103938.66;5052737;28;20218;-73
2022/03/20 05:46:30;;;;;;;29.63;19.07;;;;;;;2.98;69.35;103931.94;5051712;28;20247;-73
2022/03/20 05:48:55;;;;;;;29.67;18.70;;;;;;;3.04;67.88;103937.63;5051488;28;20193;-74
2022/03/20 05:51:21;;;;;;;24.27;17.73;;;;;;;3.06;68.45;103951.31;5052675;28;20201;-73
2022/03/20 05:53:46;;;;;;;27.83;18.60;;;;;;;3.07;68.45;103936.28;5052849;28;20186;-73
2022/03/20 05:58:57;;;;;;;27.57;19.43;;;;;;;3.15;67.32;103929.44;5052636;28;20205;-73
2022/03/20 06:01:23;;;;;;;25.60;18.43;;;;;;;3.16;67.84;103923.63;5028237;28;20267;-73
2022/03/20 06:03:49;;;;;;;25.70;17.77;;;;;;;3.27;66.10;103926.47;5043701;28;20221;-72
2022/03/20 06:06:15;;;;;;;25.17;17.53;;;;;;;3.42;65.91;103911.91;5055125;28;20201;-74
2022/03/20 06:08:40;;;;;;;23.70;17.10;;;;;;;3.50;64.13;103911.88;5062017;28;20265;-73
2022/03/20 06:11:06;;;;;;;23.43;17.17;;;;;;;3.55;63.41;103908.16;5031092;28;20226;-74
2022/03/20 06:13:33;;;;;;;24.83;17.43;;;;;;;3.62;63.69;103905.47;5040245;28;20190;-74
2022/03/20 06:15:58;;;;;;;27.10;18.40;;;;;;;3.68;64.87;103902.66;5051683;28;20667;-73
2022/03/20 06:18:26;;;;;;;26.30;17.53;;;;;;;3.68;64.62;103920.38;5052455;28;20197;-74
2022/03/20 06:20:52;;;;;;;24.37;16.80;;;;;;;3.77;64.40;103912.00;5052325;28;20220;-74
2022/03/20 06:23:18;;;;;;;25.53;17.47;;;;;;;3.89;64.08;103920.78;5051116;28;20542;-74
2022/03/20 06:25:43;;;;;;;29.00;18.17;;;;;;;3.97;63.62;103918.97;5050819;28;20243;-73
2022/03/20 06:28:08;;;;;;;24.73;17.20;;;;;;;4.01;63.07;103929.53;5052290;28;20590;-74
2022/03/20 06:30:34;;;;;;;22.17;16.57;;;;;;;4.05;63.67;103913.00;5051345;28;20198;-74
2022/03/20 06:33:02;;;;;;;26.60;16.93;;;;;;;4.06;63.25;103920.75;5051984;28;20267;-74
2022/03/20 06:35:28;;;;;;;25.27;17.83;;;;;;;4.25;63.21;103911.59;5050646;28;20213;-74
2022/03/20 06:37:53;;;;;;;25.23;17.53;;;;;;;4.40;62.33;103917.19;5052113;28;20178;-73
2022/03/20 06:40:21;;;;;;;24.33;17.03;;;;;;;4.45;61.17;103898.22;5051623;28;20186;-73
2022/03/20 06:42:47;;;;;;;23.10;16.40;;;;;;;4.67;58.90;103917.19;5051716;28;20263;-74
2022/03/20 06:45:14;;;;;;;22.13;16.40;;;;;;;4.80;59.04;103931.19;5051652;28;20638;-73
2022/03/20 06:47:41;;;;;;;22.83;17.73;;;;;;;4.82;60.34;103923.69;5050372;28;20185;-73
2022/03/20 06:50:08;;;;;;;24.23;17.73;;;;;;;4.86;60.07;103915.59;5049634;28;20206;-73
2022/03/20 06:52:34;;;;;;;24.50;16.93;;;;;;;5.00;59.63;103915.19;5051719;28;20201;-73
2022/03/20 06:55:01;;;;;;;24.37;16.43;;;;;;;5.09;59.74;103911.88;5051695;28;20739;-73
2022/03/20 06:57:27;;;;;;;24.63;17.37;;;;;;;5.22;59.54;103911.31;5051666;28;20655;-75
2022/03/20 06:59:55;;;;;;;22.40;16.27;;;;;;;5.43;59.10;103915.78;5051412;28;20170;-73
2022/03/20 07:02:21;;;;;;;27.70;18.13;;;;;;;5.44;58.04;103912.47;5033506;28;20192;-73
2022/03/20 07:04:50;;;;;;;22.70;17.20;;;;;;;5.52;57.03;103924.22;5050013;28;20793;-73
2022/03/20 07:07:16;;;;;;;24.37;17.00;;;;;;;5.61;56.37;103922.50;5050245;28;20190;-72
2022/03/20 07:09:42;;;;;;;24.40;16.80;;;;;;;5.78;56.11;103925.78;5051330;28;20675;-72
2022/03/20 07:12:09;;;;;;;22.20;16.57;;;;;;;5.77;55.41;103925.63;5049337;28;20221;-72
2022/03/20 07:14:35;;;;;;;22.43;17.03;;;;;;;5.81;53.64;103913.34;5048284;28;20590;-73
2022/03/20 07:17:03;;;;;;;22.43;16.83;;;;;;;5.94;54.12;103913.66;5048468;28;20192;-73
2022/03/20 07:19:31;;;;;;;22.97;16.90;;;;;;;6.16;54.17;103914.75;5049455;28;20195;-73
2022/03/20 07:21:57;;;;;;;24.40;16.83;;;;;;;6.32;53.25;103919.53;5051258;28;20181;-73
2022/03/20 07:24:22;;;;;;;27.23;17.97;;;;;;;6.42;52.31;103904.28;5049754;28;20217;-73
2022/03/20 07:29:32;;;;;;;21.57;16.60;;;;;;;6.40;51.54;103909.22;5049574;28;20635;-73
2022/03/20 07:32:06;;;;;;;21.63;15.80;;;;;;;6.50;51.42;103904.16;5050976;28;20197;-73
2022/03/20 07:34:32;;;;;;;22.33;16.87;;;;;;;6.74;50.76;103895.16;5050919;28;20263;-73
2022/03/20 07:36:58;;;;;;;24.20;16.80;;;;;;;6.79;51.00;103896.41;5051017;28;20180;-73
2022/03/20 07:39:24;;;;;;;25.80;17.10;;;;;;;6.97;50.29;103895.41;5049370;28;20205;-73
2022/03/20 07:41:49;;;;;;;21.87;15.83;;;;;;;6.94;49.12;103888.41;5049460;28;20198;-73
2022/03/20 07:44:23;;;;;;;20.70;16.03;;;;;;;7.16;49.08;103902.16;5049688;28;20209;-73
2022/03/20 07:46:49;;;;;;;22.23;15.57;;;;;;;7.28;48.67;103895.47;5050951;28;20570;-73
2022/03/20 07:49:14;;;;;;;22.10;15.47;;;;;;;7.43;48.04;103886.56;5049346;28;20621;-73
2022/03/20 07:51:42;;;;;;;21.47;16.57;;;;;;;7.29;46.99;103878.53;5032828;28;20178;-73
2022/03/20 07:54:07;;;;;;;22.30;16.47;;;;;;;7.47;47.03;103868.16;5049444;28;20181;-73
2022/03/20 07:56:35;;;;;;;21.73;15.97;;;;;;;7.68;46.97;103869.88;5049656;28;20186;-74
2022/03/20 07:59:05;;;;;;;23.90;15.73;;;;;;;7.68;45.85;103867.34;5049493;28;20579;-73
2022/03/20 08:01:34;;;;;;;23.30;15.40;;;;;;;7.62;45.74;103868.50;5049553;28;20216;-73
2022/03/20 08:04:00;;;;;;;20.10;16.10;;;;;;;7.85;45.47;103859.38;5049189;28;20213;-73
2022/03/20 08:06:25;;;;;;;21.53;16.13;;;;;;;8.09;45.23;103863.81;5030539;28;20221;-73
2022/03/20 08:08:52;;;;;;;22.63;16.93;;;;;;;8.01;45.04;103864.88;5030500;28;20274;-73
2022/03/20 08:11:18;;;;;;;22.93;16.07;;;;;;;8.11;44.67;103859.72;5030292;28;20186;-73
2022/03/20 08:13:44;;;;;;;24.00;16.97;;;;;;;8.45;43.98;103853.94;5028924;28;20202;-73
2022/03/20 08:16:15;;;;;;;20.37;15.87;;;;;;;8.83;44.12;103860.25;5030128;28;20575;-73
2022/03/20 08:18:42;;;;;;;22.87;16.47;;;;;;;8.88;44.06;103860.56;5030214;28;20171;-73
2022/03/20 08:21:09;;;;;;;20.50;15.07;;;;;;;8.92;43.12;103852.38;5028789;28;20194;-73
2022/03/20 08:23:36;;;;;;;22.90;15.87;;;;;;;8.64;43.17;103864.75;5030055;28;20600;-74
2022/03/20 08:26:01;;;;;;;22.40;15.03;;;;;;;8.98;43.61;103851.16;5028668;28;20222;-73
2022/03/20 08:28:26;;;;;;;22.33;16.30;;;;;;;8.97;43.67;103846.81;5030092;28;20190;-73
2022/03/20 08:30:52;;;;;;;22.07;16.10;;;;;;;9.05;42.89;103839.72;5030014;28;20189;-73
2022/03/20 08:33:17;;;;;;;21.17;16.33;;;;;;;8.69;42.90;103847.22;5028692;28;20190;-73
2022/03/20 08:35:44;;;;;;;24.30;16.43;;;;;;;9.17;42.89;103845.75;5029939;28;20217;-73
2022/03/20 08:38:09;;;;;;;23.00;16.40;;;;;;;9.44;41.95;103835.84;5030019;28;20190;-75
2022/03/20 08:40:34;;;;;;;21.33;15.93;;;;;;;9.74;41.63;103817.56;5029517;28;20212;-74
2022/03/20 08:43:00;;;;;;;23.17;17.10;;;;;;;9.95;41.74;103824.16;5028487;28;20328;-74
2022/03/20 08:45:31;;;;;;;21.53;16.37;;;;;;;9.63;42.12;103822.69;5028286;28;20226;-73
2022/03/20 08:47:57;;;;;;;22.60;16.80;;;;;;;10.32;40.59;103814.84;5028691;28;20193;-73
2022/03/20 08:50:22;;;;;;;23.67;17.00;;;;;;;10.09;40.63;103812.38;5029580;28;20194;-73
2022/03/20 08:52:48;;;;;;;22.97;16.13;;;;;;;10.06;40.29;103805.38;5028443;28;20182;-74
2022/03/20 08:55:15;;;;;;;22.73;16.47;;;;;;;10.50;39.89;103803.28;5028399;28;20261;-73
2022/03/20 08:57:42;;;;;;;22.80;17.57;;;;;;;10.44;40.02;103802.84;5029833;28;20182;-74
2022/03/20 09:00:09;;;;;;;20.17;16.03;;;;;;;10.50;38.79;103795.59;5029855;28;20549;-74
2022/03/20 09:02:36;;;;;;;18.97;15.60;;;;;;;10.54;39.15;103779.59;5029765;28;20178;-74
2022/03/20 09:05:02;;;;;;;26.03;17.70;;;;;;;10.73;39.04;103790.31;5028239;28;20222;-74
2022/03/20 09:07:28;;;;;;;23.47;16.77;;;;;;;10.76;37.83;103793.06;5029603;28;20197;-74
2022/03/20 09:09:53;;;;;;;19.50;15.83;;;;;;;10.85;37.76;103801.34;5029219;28;20187;-74
2022/03/20 09:12:18;;;;;;;22.43;16.67;;;;;;;11.07;37.83;103797.72;5030308;28;20182;-73
2022/03/20 09:14:45;;;;;;;20.67;17.00;;;;;;;11.13;37.89;103789.53;5033486;28;20279;-75
2022/03/20 09:19:55;;;;;;;18.33;15.93;;;;;;;11.55;36.42;103785.44;5031997;28;20205;-75
2022/03/20 09:22:21;;;;;;;21.47;16.67;;;;;;;12.09;36.63;103777.72;5033545;28;20190;-76
2022/03/20 09:24:46;;;;;;;23.20;16.83;;;;;;;12.16;35.52;103772.16;5033288;28;20229;-76
2022/03/20 09:27:12;;;;;;;24.07;16.63;;;;;;;12.48;35.21;103759.50;5033429;28;20209;-75
2022/03/20 09:29:37;;;;;;;23.30;17.53;;;;;;;12.77;34.88;103759.53;5033113;28;20542;-75
2022/03/20 09:32:02;;;;;;;19.67;16.37;;;;;;;13.57;34.52;103757.22;5031875;28;20561;-76
2022/03/20 09:34:32;;;;;;;19.30;17.20;;;;;;;15.81;30.29;103740.16;5031845;28;20675;-76
2022/03/20 09:36:59;;;;;;;23.30;17.37;;;;;;;18.80;26.23;103722.56;5033286;28;20297;-76
2022/03/20 09:39:26;;;;;;;19.20;17.10;;;;;;;19.69;25.12;103727.94;5017640;28;21168;-76
2022/03/20 09:41:55;;;;;;;21.87;17.70;;;;;;;19.98;23.98;103714.88;5055666;28;20305;-75
2022/03/20 09:44:25;;;;;;;19.40;17.30;;;;;;;20.28;23.73;103714.84;5060948;28;20217;-75
2022/03/20 09:46:51;;;;;;;22.42;16.83;;;;;;;20.94;22.90;103717.41;5037547;28;20217;-76
2022/03/20 09:49:18;;;;;;;19.08;16.95;;;;;;;23.22;21.43;103702.56;5031549;28;20681;-75
2022/03/20 09:51:44;;;;;;;19.30;17.30;;;;;;;21.92;21.71;103703.88;5032511;28;20187;-75
2022/03/20 09:54:13;;;;;;;19.52;17.52;;;;;;;22.73;21.28;103707.03;5032622;28;20189;-75
2022/03/20 09:56:42;;;;;;;19.85;17.83;;;;;;;22.46;21.49;103694.41;5032626;28;20190;-75
2022/03/20 09:59:09;;;;;;;20.83;18.63;;;;;;;26.25;19.26;103672.41;5032851;28;20194;-75
2022/03/20 10:01:35;;;;;;;19.85;17.73;;;;;;;23.82;19.75;103695.44;5051055;28;20558;-74
2022/03/20 10:04:09;;;;;;;19.33;17.33;;;;;;;25.79;18.92;103681.09;5050900;28;20177;-76
2022/03/20 10:06:37;;;;;;;20.35;18.17;;;;;;;24.81;18.65;103685.00;5052417;28;20185;-76
2022/03/20 10:09:04;;;;;;;20.33;18.23;;;;;;;24.59;18.97;103683.06;5052343;28;20690;-76
2022/03/20 10:11:31;;;;;;;21.40;18.42;;;;;;;25.89;18.63;103678.47;5034326;28;20194;-76
2022/03/20 10:14:14;;;;;;;19.35;17.35;;;;;;;25.80;18.12;103673.22;5050990;28;20205;-75
2022/03/20 10:17:06;;;;;;;20.08;18.08;;;;;;;25.25;18.59;103676.50;5052587;28;20594;-76
2022/03/20 10:19:32;;;;;;;19.92;17.92;;;;;;;26.86;17.68;103664.47;5052222;28;20184;-76
2022/03/20 10:22:06;;;;;;;20.13;17.80;;;;;;;27.30;16.68;103659.06;5050933;28;20189;-76
2022/03/20 10:24:35;;;;;;;21.35;17.60;;;;;;;25.27;18.69;103672.16;5051016;28;20217;-76
2022/03/20 10:27:00;;;;;;;19.55;17.33;;;;;;;25.89;17.99;103657.47;5050894;28;20185;-76
2022/03/20 10:29:27;;;;;;;20.25;18.15;;;;;;;25.71;18.15;103656.53;5051945;28;20194;-76
2022/03/20 10:31:56;;;;;;;20.88;17.95;;;;;;;26.25;17.16;103654.84;5034207;28;20655;-77
2022/03/20 10:34:26;;;;;;;21.33;18.17;;;;;;;25.90;17.62;103650.44;5051979;28;20209;-75
2022/03/20 10:36:52;;;;;;;19.45;17.30;;;;;;;26.77;16.84;103638.19;5051811;28;20576;-76
2022/03/20 10:39:22;;;;;;;20.27;18.10;;;;;;;26.24;17.07;103634.72;5035651;28;20181;-75
2022/03/20 10:41:52;;;;;;;21.52;18.23;;;;;;;26.43;16.63;103632.97;5051530;28;20197;-76
2022/03/20 10:44:27;;;;;;;20.42;18.52;;;;;;;27.01;16.58;103613.53;5050362;28;20609;-77
2022/03/20 10:47:04;;;;;;;19.52;17.38;;;;;;;27.83;16.11;103633.31;5070549;28;20343;-76
2022/03/20 10:49:31;;;;;;;20.77;17.42;;;;;;;27.28;16.51;103618.69;5050750;28;20552;-76
2022/03/20 10:52:11;;;;;;;19.85;17.52;;;;;;;27.04;16.28;103617.03;5033918;28;20228;-76
2022/03/20 10:54:42;;;;;;;19.42;17.13;;;;;;;27.57;16.86;103622.91;5051495;28;20197;-76
2022/03/20 10:57:10;;;;;;;20.08;18.13;;;;;;;27.89;16.38;103614.81;5050043;28;20189;-76
2022/03/20 10:59:36;;;;;;;19.27;17.25;;;;;;;28.45;15.49;103600.25;5051350;28;20706;-77
2022/03/20 11:02:05;;;;;;;21.05;18.65;;;;;;;28.96;16.18;103604.91;5051790;28;20189;-77
2022/03/20 11:04:31;;;;;;;20.33;18.17;;;;;;;28.08;15.49;103612.00;5045917;28;20632;-76
2022/03/20 11:06:59;;;;;;;22.15;19.02;;;;;;;28.21;17.79;103596.94;5031517;28;20193;-77
2022/03/20 11:09:25;;;;;;;19.92;17.83;;;;;;;30.13;14.67;103585.59;5031269;28;20190;-77
2022/03/20 11:11:53;;;;;;;18.67;16.67;;;;;;;30.61;15.08;103590.81;5029876;28;20289;-76
2022/03/20 11:14:22;;;;;;;18.73;16.83;;;;;;;30.68;14.88;103588.97;5042713;28;20544;-77
2022/03/20 11:16:53;;;;;;;18.83;16.98;;;;;;;28.32;16.23;103592.47;5041882;28;20799;-76
2022/03/20 11:19:25;;;;;;;20.85;18.63;;;;;;;27.08;16.50;103588.94;5029827;28;20175;-75
2022/03/20 11:21:54;;;;;;;19.23;17.27;;;;;;;27.44;15.90;103570.34;5049612;28;20269;-76
2022/03/20 11:24:21;;;;;;;19.97;17.87;;;;;;;27.46;15.63;103574.72;5051035;28;20217;-77
2022/03/20 11:26:49;;;;;;;20.37;18.17;;;;;;;27.84;15.38;103579.72;5051059;28;20553;-76
2022/03/20 11:29:15;;;;;;;22.30;18.30;;;;;;;25.88;17.28;103570.78;5051143;28;20182;-76
2022/03/20 11:31:41;;;;;;;21.47;19.03;;;;;;;23.08;19.55;103590.75;5051235;28;20178;-77
2022/03/20 11:34:08;;;;;;;20.17;17.87;;;;;;;22.47;20.65;103583.81;5066544;28;20780;-76
2022/03/20 11:37:11;;;;;;;24.67;17.70;;;;;;;20.40;22.59;103588.47;5049477;28;20289;-77
2022/03/20 11:39:39;;;;;;;22.70;17.27;;;;;;;19.44;23.40;103588.56;5036072;28;20794;-75
2022/03/20 11:42:25;;;;;;;20.20;16.93;;;;;;;19.93;24.28;103577.72;5050701;28;20220;-76
2022/03/20 11:45:12;;;;;;;20.47;17.07;;;;;;;19.72;23.22;103598.00;5066137;28;20633;-73
2022/03/20 11:47:39;;;;;;;20.50;16.70;;;;;;;19.12;23.99;103567.69;5050749;28;20185;-74